ADDS METAR Data INFO
IDs: Format: Raw Decoded Include TAF

Data at: 0255 UTC 17 Jan 2018

KGPT 170232Z 35015G24KT 10SM OVC014 00/M03 A3049 RMK AO2 T00001028
KGPT 170209Z 35014G24KT 10SM BKN018 OVC038 01/M03 A3048 RMK AO2 T00111028
KGPT 170153Z 34013KT 10SM FEW020 OVC038 02/M03 A3048 RMK AO2 SLP320 T00171028
KGPT 170053Z 35013G20KT 10SM OVC036 02/M03 A3045 RMK AO2 SLP311 T00221033
KGPT 162353Z 35017G23KT 10SM OVC033 03/M03 A3043 RMK AO2 PK WND 34026/2257 SLP303 T00331028 10094 20033 51016
KGPT 162253Z 34016G25KT 10SM BKN034 OVC045 05/M02 A3042 RMK AO2 SLP301 T00501017
KGPT 162153Z 35013G20KT 10SM BKN030 OVC049 08/00 A3039 RMK AO2 SLP290 T00830000
KGPT 162053Z 35015KT 10SM BKN100 BKN120 08/01 A3038 RMK AO2 SLP287 T00780011 56020
KGPT 161953Z 36011KT 10SM BKN060 07/01 A3039 RMK AO2 SLP290 T00720011
KGPT 161853Z 35016G23KT 10SM SCT040 BKN060 OVC110 06/01 A3042 RMK AO2 SLP299 T00560006
KGPT 161753Z 35015G22KT 10SM BKN042 OVC110 07/02 A3044 RMK AO2 SLP307 T00720017 10083 20039 50001
KGPT 161653Z 35013KT 10SM BKN043 OVC065 06/02 A3046 RMK AO2 SLP314 T00610022
KGPT 161553Z 34013KT 10SM BKN041 OVC050 07/04 A3047 RMK AO2 SLP315 T00670039
KGPT 161453Z 35011KT 10SM OVC035 07/04 A3044 RMK AO2 SLP306 T00720044 53016
KGPT 161353Z 00000KT 8SM SCT048 07/04 A3040 RMK AO2 SLP294 T00670044
KGPT 161348Z 00000KT 8SM SCT048 07/05 A3040 RMK AO2
KGPT 161341Z 00000KT 9SM BKN028 06/04 A3040 RMK AO2 T00560044
KGPT 161253Z 31003KT 10SM FEW027 04/03 A3039 RMK AO2 SLP290 T00440033
KGPT 161153Z 00000KT 9SM FEW026 BKN044 04/04 A3039 RMK AO2 SLP291 T00440039 10061 20022 53008
KGPT 161053Z AUTO 34003KT 10SM BKN031 OVC041 06/05 A3039 RMK AO2 SLP290 T00610050
KGPT 160953Z AUTO 31004KT 8SM CLR 02/02 A3036 RMK AO2 SLP281 T00220017
KGPT 160853Z AUTO 00000KT 8SM CLR 03/02 A3037 RMK AO2 SLP283 T00280022 56005
KGPT 160753Z AUTO 00000KT 6SM BR CLR 03/02 A3038 RMK AO2 SLP285 T00280017
KGPT 160653Z AUTO 00000KT 9SM CLR 04/03 A3037 RMK AO2 SLP283 T00390028
KGPT 160553Z AUTO 00000KT 7SM CLR 04/03 A3038 RMK AO2 SLP288 T00390033 10089 20039 401501017 58001
KGPT 160453Z AUTO 00000KT 9SM CLR 04/03 A3039 RMK AO2 SLP290 T00440033
KGPT 160353Z 00000KT 9SM CLR 05/04 A3039 RMK AO2 SLP290 T00500039
KGPT 160253Z 00000KT 10SM CLR 05/04 A3039 RMK AO2 SLP289 T00500039 53004
KGPT 160153Z 00000KT 10SM CLR 06/05 A3038 RMK AO2 SLP288 T00610050
KGPT 160053Z 00000KT 10SM CLR 07/06 A3038 RMK AO2 SLP285 T00670056
KGPT 152353Z 12004KT 10SM FEW041 09/06 A3037 RMK AO2 SLP285 T00890056 10150 20089 51005
KGPT 152253Z 15005KT 10SM SCT038 12/06 A3038 RMK AO2 SLP285 T01170056
KGPT 152153Z 15009KT 10SM CLR 13/05 A3037 RMK AO2 SLP282 T01280050
KGPT 152053Z 13010KT 10SM CLR 13/04 A3036 RMK AO2 SLP280 T01330044 56023
KGPT 151953Z 14009KT 10SM CLR 14/03 A3036 RMK AO2 SLP281 T01390033
KGPT 151853Z 12007KT 10SM BKN040 14/03 A3038 RMK AO2 SLP287 T01390033
KGPT 151753Z 15005KT 10SM CLR 13/02 A3043 RMK AO2 SLP302 T01330022 10139 21017 58013
KGPT 151653Z 04005KT 10SM CLR 13/M01 A3046 RMK AO2 SLP313 T01281006
KGPT 151553Z 07006KT 10SM CLR 10/M03 A3047 RMK AO2 SLP318 T01001028